Time;durP1;ratioP1;P1;durP2;ratioP2;P2;SDS_P1;SDS_P2;PMS_P1;PMS_P2;Temp;Humidity;BMP_temperature;BMP_pressure;BME280_temperature;BME280_humidity;BME280_pressure;Samples;Min_cycle;Max_cycle;Signal;HPM_P1;HPM_P2
2021/12/10 00:01:37;;;;;;;;;;;23.10;53.60;;;;;;5116953;28;19924;-50
2021/12/10 00:04:06;;;;;;;;;;;23.10;53.70;;;;;;5098991;28;20022;-45
2021/12/10 00:06:35;;;;;;;;;;;23.10;53.60;;;;;;5117175;28;19992;-47
2021/12/10 00:09:05;;;;;;;;;;;23.10;53.60;;;;;;5117140;28;19946;-53
2021/12/10 00:11:35;;;;;;;;;;;23.10;53.70;;;;;;5116738;28;19928;-54
2021/12/10 00:14:03;;;;;;;;;;;23.10;53.70;;;;;;5115630;27;19923;-55
2021/12/10 00:16:32;;;;;;;;;;;23.10;53.60;;;;;;5117005;28;19931;-49
2021/12/10 00:19:37;;;;;;;;;;;23.10;53.60;;;;;;5116472;28;19939;-50
2021/12/10 00:21:54;;;;;;;;;;;23.10;53.70;;;;;;5113088;28;19956;-52
2021/12/10 00:24:24;;;;;;;;;;;23.10;53.70;;;;;;5116318;28;19953;-53
2021/12/10 00:26:52;;;;;;;;;;;23.10;53.70;;;;;;5116848;28;19930;-54
2021/12/10 00:29:19;;;;;;;;;;;23.00;53.60;;;;;;5115708;27;19931;-55
2021/12/10 00:31:50;;;;;;;;;;;23.00;53.60;;;;;;5116641;28;19924;-52
2021/12/10 00:34:29;;;;;;;;;;;23.00;53.60;;;;;;5116429;28;19924;-50
2021/12/10 00:36:58;;;;;;;;;;;23.00;53.60;;;;;;5116291;28;19923;-47
2021/12/10 00:39:27;;;;;;;;;;;23.00;53.60;;;;;;5116256;28;19924;-55
2021/12/10 00:41:55;;;;;;;;;;;23.00;53.60;;;;;;5116206;28;19928;-45
2021/12/10 00:44:23;;;;;;;;;;;23.00;53.60;;;;;;5115223;27;20286;-51
2021/12/10 00:46:50;;;;;;;;;;;23.00;53.60;;;;;;5116424;28;19923;-47
2021/12/10 00:49:17;;;;;;;;;;;23.00;53.60;;;;;;5116085;28;20387;-54
2021/12/10 00:51:44;;;;;;;;;;;23.00;53.60;;;;;;5115914;28;20398;-50
2021/12/10 00:54:12;;;;;;;;;;;23.00;53.60;;;;;;5116001;28;19930;-46
2021/12/10 00:56:41;;;;;;;;;;;23.00;53.60;;;;;;5116225;28;19923;-50
2021/12/10 00:59:10;;;;;;;;;;;23.00;53.60;;;;;;5114929;27;19924;-46
2021/12/10 01:01:38;;;;;;;;;;;23.00;53.60;;;;;;5116096;28;19935;-47
2021/12/10 01:04:16;;;;;;;;;;;23.00;53.60;;;;;;5117166;28;19930;-49
2021/12/10 01:06:44;;;;;;;;;;;23.00;53.60;;;;;;5116011;28;20286;-48
2021/12/10 01:09:17;;;;;;;;;;;23.00;53.60;;;;;;5115644;28;20383;-51
2021/12/10 01:11:50;;;;;;;;;;;23.00;53.60;;;;;;5115540;28;19932;-48
2021/12/10 01:14:25;;;;;;;;;;;23.00;53.60;;;;;;5114996;28;19923;-50
2021/12/10 01:25:31;;;;;;;;;;;23.00;53.60;;;;;;5115607;28;20298;-49
2021/12/10 01:27:58;;;;;;;;;;;23.00;53.60;;;;;;5115630;28;19972;-45
2021/12/10 01:30:27;;;;;;;;;;;23.00;53.60;;;;;;5114328;28;19928;-50
2021/12/10 01:32:57;;;;;;;;;;;23.00;53.60;;;;;;5115420;28;20317;-55
2021/12/10 01:35:26;;;;;;;;;;;23.00;53.60;;;;;;5115205;28;19969;-50
2021/12/10 01:37:54;;;;;;;;;;;23.00;53.60;;;;;;5115625;28;19977;-52
2021/12/10 01:40:24;;;;;;;;;;;22.90;53.60;;;;;;5115092;28;20382;-48
2021/12/10 01:42:53;;;;;;;;;;;23.00;53.60;;;;;;5115024;28;19924;-50
2021/12/10 01:45:28;;;;;;;;;;;22.90;53.60;;;;;;5095699;28;20421;-54
2021/12/10 01:47:57;;;;;;;;;;;22.90;53.60;;;;;;5115235;28;19927;-47
2021/12/10 01:50:25;;;;;;;;;;;22.90;53.60;;;;;;5114871;28;20367;-48
2021/12/10 01:52:56;;;;;;;;;;;22.90;53.60;;;;;;5114464;28;19969;-52
2021/12/10 01:55:24;;;;;;;;;;;22.90;53.60;;;;;;5115055;28;19956;-53
2021/12/10 01:57:52;;;;;;;;;;;22.90;53.60;;;;;;5114766;28;19928;-52
2021/12/10 02:00:22;;;;;;;;;;;22.90;53.60;;;;;;5113863;27;19977;-46
2021/12/10 02:02:49;;;;;;;;;;;22.90;53.60;;;;;;5115844;28;20260;-45
2021/12/10 02:05:17;;;;;;;;;;;22.90;53.60;;;;;;5114608;28;19930;-51
2021/12/10 02:07:45;;;;;;;;;;;22.90;53.60;;;;;;5114582;28;19931;-46
2021/12/10 02:10:14;;;;;;;;;;;22.90;53.60;;;;;;5114531;28;19946;-51
2021/12/10 02:12:41;;;;;;;;;;;22.90;53.60;;;;;;5114691;28;20384;-50
2021/12/10 02:15:10;;;;;;;;;;;22.90;53.60;;;;;;5113802;28;19927;-48
2021/12/10 02:17:40;;;;;;;;;;;22.80;53.60;;;;;;5114266;28;19969;-51
2021/12/10 02:20:12;;;;;;;;;;;22.80;53.50;;;;;;5114703;28;19923;-53
2021/12/10 02:22:39;;;;;;;;;;;22.90;53.60;;;;;;5113941;28;19924;-57
2021/12/10 02:25:06;;;;;;;;;;;22.90;53.60;;;;;;5114232;28;20306;-53
2021/12/10 02:27:34;;;;;;;;;;;22.80;53.60;;;;;;5114317;28;19924;-56
2021/12/10 02:30:01;;;;;;;;;;;22.80;53.60;;;;;;5113419;28;19957;-53
2021/12/10 02:32:28;;;;;;;;;;;22.80;53.60;;;;;;5114406;28;19960;-52
2021/12/10 02:34:55;;;;;;;;;;;22.80;53.60;;;;;;5114203;28;19924;-54
2021/12/10 02:37:22;;;;;;;;;;;22.80;53.60;;;;;;5114503;28;19924;-53
2021/12/10 02:39:49;;;;;;;;;;;22.80;53.60;;;;;;5114156;28;19924;-56
2021/12/10 02:42:16;;;;;;;;;;;22.80;53.50;;;;;;5114124;28;19972;-53
2021/12/10 02:44:43;;;;;;;;;;;22.80;53.60;;;;;;5113013;28;19924;-46
2021/12/10 02:47:10;;;;;;;;;;;22.80;53.60;;;;;;5114051;28;19924;-48
2021/12/10 02:49:38;;;;;;;;;;;22.80;53.60;;;;;;5114406;28;20010;-54
2021/12/10 02:52:05;;;;;;;;;;;22.80;53.60;;;;;;5113972;28;19970;-53
2021/12/10 02:54:36;;;;;;;;;;;22.80;53.60;;;;;;5113751;28;19945;-50
2021/12/10 02:57:06;;;;;;;;;;;22.80;53.60;;;;;;5114034;28;19973;-56
2021/12/10 02:59:33;;;;;;;;;;;22.80;53.60;;;;;;5113045;28;19970;-50
2021/12/10 03:02:03;;;;;;;;;;;22.80;54.20;;;;;;5114524;28;20332;-56
2021/12/10 03:04:32;;;;;;;;;;;22.80;53.60;;;;;;5113925;28;19969;-52
2021/12/10 03:07:00;;;;;;;;;;;22.80;53.60;;;;;;5114973;28;19927;-51
2021/12/10 03:09:28;;;;;;;;;;;22.80;53.60;;;;;;5113896;28;20432;-48
2021/12/10 03:11:56;;;;;;;;;;;22.80;53.60;;;;;;5113764;28;20375;-51
2021/12/10 03:14:26;;;;;;;;;;;22.80;53.60;;;;;;5114386;28;19976;-48
2021/12/10 03:16:54;;;;;;;;;;;22.80;53.60;;;;;;5112877;28;19924;-52
2021/12/10 03:19:21;;;;;;;;;;;22.80;53.60;;;;;;5113839;28;19924;-52
2021/12/10 03:21:49;;;;;;;;;;;22.80;53.60;;;;;;5113756;28;19981;-53
2021/12/10 03:24:17;;;;;;;;;;;22.70;53.60;;;;;;5113516;28;20375;-50
2021/12/10 03:26:44;;;;;;;;;;;22.70;53.60;;;;;;5113740;28;19971;-53
2021/12/10 03:29:11;;;;;;;;;;;22.70;53.60;;;;;;5113713;28;19973;-51
2021/12/10 03:31:39;;;;;;;;;;;22.70;53.60;;;;;;5112368;28;19931;-56
2021/12/10 03:34:07;;;;;;;;;;;22.70;53.60;;;;;;5116500;28;19923;-53
2021/12/10 03:36:34;;;;;;;;;;;22.70;53.60;;;;;;5117804;28;19924;-50
2021/12/10 03:39:02;;;;;;;;;;;22.70;53.60;;;;;;5117776;28;19969;-52
2021/12/10 03:41:29;;;;;;;;;;;22.70;53.60;;;;;;5117401;28;20390;-54
2021/12/10 03:43:56;;;;;;;;;;;22.70;53.60;;;;;;5117666;28;19924;-53
2021/12/10 03:46:23;;;;;;;;;;;22.70;53.60;;;;;;5116373;28;19949;-49
2021/12/10 03:48:50;;;;;;;;;;;22.70;53.60;;;;;;5117278;28;19931;-51
2021/12/10 03:51:20;;;;;;;;;;;22.70;53.60;;;;;;5117222;28;19931;-52
2021/12/10 03:53:48;;;;;;;;;;;22.70;53.60;;;;;;5116822;28;19924;-55
2021/12/10 03:56:17;;;;;;;;;;;22.70;53.60;;;;;;5117115;28;19923;-49
2021/12/10 03:58:44;;;;;;;;;;;22.70;53.60;;;;;;5117337;28;19949;-47
2021/12/10 04:01:12;;;;;;;;;;;22.70;53.70;;;;;;5116143;27;19928;-49
2021/12/10 04:03:40;;;;;;;;;;;22.70;53.70;;;;;;5116962;28;19974;-51
2021/12/10 04:06:07;;;;;;;;;;;22.70;53.70;;;;;;5116901;28;19923;-54
2021/12/10 04:08:35;;;;;;;;;;;22.70;53.70;;;;;;5116864;28;19924;-55
2021/12/10 04:11:04;;;;;;;;;;;22.70;53.70;;;;;;5116828;28;20401;-55
2021/12/10 04:13:31;;;;;;;;;;;22.70;53.70;;;;;;5116681;28;19923;-51
2021/12/10 04:15:59;;;;;;;;;;;22.70;53.70;;;;;;5115505;27;20413;-53
2021/12/10 04:18:26;;;;;;;;;;;22.70;53.70;;;;;;5116800;28;20287;-47
2021/12/10 04:20:53;;;;;;;;;;;22.70;53.70;;;;;;5116637;28;19978;-51
2021/12/10 04:23:21;;;;;;;;;;;22.60;53.60;;;;;;5116294;28;19927;-53
2021/12/10 04:25:48;;;;;;;;;;;22.70;53.70;;;;;;5116848;28;20283;-51
2021/12/10 04:28:16;;;;;;;;;;;22.60;53.60;;;;;;5116788;28;19985;-48
2021/12/10 04:30:45;;;;;;;;;;;22.60;53.70;;;;;;5115715;27;19938;-45
2021/12/10 04:33:15;;;;;;;;;;;22.60;53.70;;;;;;5116629;28;19924;-48
2021/12/10 04:35:44;;;;;;;;;;;22.60;53.70;;;;;;5116678;28;19928;-45
2021/12/10 04:38:11;;;;;;;;;;;22.60;53.70;;;;;;5116555;28;19976;-52
2021/12/10 04:40:39;;;;;;;;;;;22.60;53.70;;;;;;5116267;28;20044;-52
2021/12/10 04:43:07;;;;;;;;;;;22.60;53.70;;;;;;5116216;28;20391;-51
2021/12/10 04:45:34;;;;;;;;;;;22.60;53.70;;;;;;5096913;27;19923;-48
2021/12/10 04:48:01;;;;;;;;;;;22.60;53.70;;;;;;5115826;27;20371;-55
2021/12/10 04:50:29;;;;;;;;;;;22.60;53.70;;;;;;5116363;28;19927;-47
2021/12/10 04:52:57;;;;;;;;;;;22.60;53.70;;;;;;5115937;28;19971;-53
2021/12/10 04:55:24;;;;;;;;;;;22.60;53.70;;;;;;5116261;28;20276;-55
2021/12/10 04:57:51;;;;;;;;;;;22.60;53.70;;;;;;5115889;28;19969;-51
2021/12/10 05:00:21;;;;;;;;;;;22.60;53.70;;;;;;5115855;28;19954;-49
2021/12/10 05:02:48;;;;;;;;;;;22.60;53.70;;;;;;5114596;28;19924;-48
2021/12/10 05:05:15;;;;;;;;;;;22.50;53.60;;;;;;5116257;28;20303;-48
2021/12/10 05:07:42;;;;;;;;;;;22.60;53.70;;;;;;5115699;28;20383;-53
2021/12/10 05:10:13;;;;;;;;;;;22.50;53.70;;;;;;5115996;28;20336;-54
2021/12/10 05:12:40;;;;;;;;;;;22.50;53.70;;;;;;5115531;28;19927;-55
2021/12/10 05:15:08;;;;;;;;;;;22.50;53.70;;;;;;5116420;28;19928;-50
2021/12/10 05:17:36;;;;;;;;;;;22.50;53.70;;;;;;5114219;27;19970;-45
2021/12/10 05:20:14;;;;;;;;;;;22.50;53.70;;;;;;5115473;28;19971;-45
2021/12/10 05:22:43;;;;;;;;;;;22.50;53.70;;;;;;5097164;28;19924;-51
2021/12/10 05:25:10;;;;;;;;;;;22.50;53.70;;;;;;5115684;28;19927;-56
2021/12/10 05:27:38;;;;;;;;;;;22.50;53.70;;;;;;5115345;28;19924;-48
2021/12/10 05:30:07;;;;;;;;;;;22.50;53.70;;;;;;5115294;28;19969;-54
2021/12/10 05:32:34;;;;;;;;;;;22.50;53.70;;;;;;5113903;27;19924;-49
2021/12/10 05:35:02;;;;;;;;;;;22.50;53.70;;;;;;5115449;28;19949;-56
2021/12/10 05:37:29;;;;;;;;;;;22.50;53.70;;;;;;5115433;28;19924;-57
2021/12/10 05:39:56;;;;;;;;;;;22.50;53.70;;;;;;5115677;28;19924;-55
2021/12/10 05:42:23;;;;;;;;;;;22.50;53.70;;;;;;5115287;28;19927;-54
2021/12/10 05:44:51;;;;;;;;;;;22.50;53.70;;;;;;5114985;28;19932;-56
2021/12/10 05:47:18;;;;;;;;;;;22.50;53.70;;;;;;5113699;28;19966;-57
2021/12/10 05:49:45;;;;;;;;;;;22.50;53.70;;;;;;5114896;28;20421;-53
2021/12/10 05:52:14;;;;;;;;;;;22.50;53.70;;;;;;5115158;28;19992;-53
2021/12/10 05:54:43;;;;;;;;;;;22.50;53.70;;;;;;5114966;28;19928;-54
2021/12/10 05:57:12;;;;;;;;;;;22.50;53.70;;;;;;5114259;28;20278;-55
2021/12/10 05:59:39;;;;;;;;;;;22.50;53.70;;;;;;5114732;28;19968;-49
2021/12/10 06:02:06;;;;;;;;;;;22.50;53.70;;;;;;5113961;28;19924;-50
2021/12/10 06:04:34;;;;;;;;;;;22.50;53.70;;;;;;5114628;28;19924;-53
2021/12/10 06:07:04;;;;;;;;;;;22.50;53.70;;;;;;5114917;28;19930;-57
2021/12/10 06:09:31;;;;;;;;;;;22.50;53.70;;;;;;5114542;28;19976;-48
2021/12/10 06:11:58;;;;;;;;;;;22.50;53.60;;;;;;5114542;28;19923;-56
2021/12/10 06:14:26;;;;;;;;;;;22.50;53.60;;;;;;5114428;28;19924;-51
2021/12/10 06:16:54;;;;;;;;;;;22.50;53.60;;;;;;5113100;28;19928;-55
2021/12/10 06:19:22;;;;;;;;;;;22.50;53.60;;;;;;5114463;28;19930;-51
2021/12/10 06:21:50;;;;;;;;;;;22.50;53.60;;;;;;5114374;28;19924;-51
2021/12/10 06:24:17;;;;;;;;;;;22.50;53.60;;;;;;5114013;28;19930;-54
2021/12/10 06:26:45;;;;;;;;;;;22.50;53.60;;;;;;5115461;28;19924;-46
2021/12/10 06:29:12;;;;;;;;;;;22.50;53.60;;;;;;5114277;28;19973;-47
2021/12/10 06:31:39;;;;;;;;;;;22.50;53.60;;;;;;5113895;28;19996;-51
2021/12/10 06:34:09;;;;;;;;;;;22.50;54.00;;;;;;5114254;28;19928;-53
2021/12/10 06:36:37;;;;;;;;;;;22.50;53.60;;;;;;5114208;28;19978;-49
2021/12/10 06:39:05;;;;;;;;;;;22.50;53.60;;;;;;5114188;28;19924;-54
2021/12/10 06:41:32;;;;;;;;;;;22.50;53.60;;;;;;5114136;28;19969;-47
2021/12/10 06:44:04;;;;;;;;;;;22.50;53.50;;;;;;5114655;28;20098;-51
2021/12/10 06:46:33;;;;;;;;;;;22.50;53.50;;;;;;5114120;28;19923;-52
2021/12/10 06:49:00;;;;;;;;;;;22.50;53.50;;;;;;5112779;28;20301;-55
2021/12/10 06:51:27;;;;;;;;;;;22.50;53.50;;;;;;5114364;28;20259;-50
2021/12/10 06:53:54;;;;;;;;;;;22.50;53.50;;;;;;5113651;28;19963;-51
2021/12/10 06:56:25;;;;;;;;;;;22.60;53.50;;;;;;5114352;28;20036;-53
2021/12/10 06:58:52;;;;;;;;;;;22.50;53.50;;;;;;5114334;28;20283;-51
2021/12/10 07:01:24;;;;;;;;;;;22.60;53.50;;;;;;5113898;28;19927;-55
2021/12/10 07:03:52;;;;;;;;;;;22.50;53.40;;;;;;5113457;28;19924;-50
2021/12/10 07:06:19;;;;;;;;;;;22.60;53.40;;;;;;5114242;28;20113;-51
2021/12/10 07:08:47;;;;;;;;;;;22.60;53.40;;;;;;5116642;28;19924;-51
2021/12/10 07:11:16;;;;;;;;;;;22.60;53.60;;;;;;5118810;28;19924;-46
2021/12/10 07:13:45;;;;;;;;;;;22.60;53.40;;;;;;5118141;28;19924;-48
2021/12/10 07:16:13;;;;;;;;;;;22.60;53.30;;;;;;5118224;28;19924;-55
2021/12/10 07:18:40;;;;;;;;;;;22.60;53.30;;;;;;5116766;27;19928;-57
2021/12/10 07:21:08;;;;;;;;;;;22.60;53.20;;;;;;5117807;28;20018;-49
2021/12/10 07:23:37;;;;;;;;;;;22.60;53.20;;;;;;5117744;28;19923;-52
2021/12/10 07:26:05;;;;;;;;;;;22.60;53.20;;;;;;5118047;28;19923;-47
2021/12/10 07:28:32;;;;;;;;;;;22.60;53.10;;;;;;5117654;28;19928;-48
2021/12/10 07:31:00;;;;;;;;;;;22.70;53.20;;;;;;5117622;28;19924;-56
2021/12/10 07:33:27;;;;;;;;;;;22.70;53.10;;;;;;5116476;28;19977;-54
2021/12/10 07:35:54;;;;;;;;;;;22.70;53.80;;;;;;5100181;28;19924;-47
2021/12/10 07:38:22;;;;;;;;;;;22.70;53.10;;;;;;5118076;28;19923;-49
2021/12/10 07:40:49;;;;;;;;;;;22.70;53.10;;;;;;5117754;28;19923;-50
2021/12/10 07:43:18;;;;;;;;;;;22.70;53.10;;;;;;5117391;28;19962;-50
2021/12/10 07:45:49;;;;;;;;;;;22.70;53.00;;;;;;5099511;28;19923;-47
2021/12/10 07:48:19;;;;;;;;;;;22.70;53.00;;;;;;5116219;28;19931;-50
2021/12/10 07:51:09;;;;;;;;;;;22.70;52.90;;;;;;5117236;28;19969;-48
2021/12/10 07:53:36;;;;;;;;;;;22.70;52.90;;;;;;5116866;28;19928;-50
2021/12/10 07:56:05;;;;;;;;;;;22.70;52.90;;;;;;5117160;28;20053;-54
2021/12/10 07:58:32;;;;;;;;;;;22.70;52.90;;;;;;5117331;28;19949;-46
2021/12/10 08:01:00;;;;;;;;;;;22.70;52.80;;;;;;5117350;28;19927;-56
2021/12/10 08:03:27;;;;;;;;;;;22.80;52.90;;;;;;5115845;28;19956;-46
2021/12/10 08:05:54;;;;;;;;;;;22.80;52.90;;;;;;5116934;28;19972;-48
2021/12/10 08:08:21;;;;;;;;;;;22.80;52.80;;;;;;5099099;28;19923;-48
2021/12/10 08:10:48;;;;;;;;;;;22.80;52.80;;;;;;5130753;27;19923;-48
2021/12/10 08:13:16;;;;;;;;;;;22.80;52.80;;;;;;5137571;27;20324;-54
2021/12/10 08:15:43;;;;;;;;;;;22.80;52.70;;;;;;5137576;27;19923;-54
2021/12/10 08:18:11;;;;;;;;;;;22.80;52.70;;;;;;5131745;27;19943;-53
2021/12/10 08:20:38;;;;;;;;;;;22.80;52.70;;;;;;5115848;28;20387;-51
2021/12/10 08:23:05;;;;;;;;;;;22.80;52.60;;;;;;5116747;28;19931;-52
2021/12/10 08:25:33;;;;;;;;;;;22.80;52.60;;;;;;5116866;28;19931;-51
2021/12/10 08:28:00;;;;;;;;;;;22.90;52.70;;;;;;5116531;28;19924;-48
2021/12/10 08:30:28;;;;;;;;;;;22.90;52.70;;;;;;5098511;28;19924;-53
2021/12/10 08:32:56;;;;;;;;;;;22.90;52.60;;;;;;5115607;27;19924;-55
2021/12/10 08:35:24;;;;;;;;;;;22.90;52.60;;;;;;5115864;28;20290;-56
2021/12/10 08:37:52;;;;;;;;;;;22.90;52.60;;;;;;5116286;28;19924;-54
2021/12/10 08:40:24;;;;;;;;;;;22.90;52.60;;;;;;5116619;28;19924;-51
2021/12/10 08:42:53;;;;;;;;;;;22.90;52.60;;;;;;5116232;28;19931;-57
2021/12/10 08:45:20;;;;;;;;;;;22.90;52.50;;;;;;5116500;28;19924;-51
2021/12/10 08:47:48;;;;;;;;;;;22.90;52.50;;;;;;5116469;28;20268;-50
2021/12/10 08:50:22;;;;;;;;;;;22.90;52.50;;;;;;5114983;27;20340;-56
2021/12/10 08:52:54;;;;;;;;;;;22.90;52.50;;;;;;5115721;28;19923;-54
2021/12/10 08:55:21;;;;;;;;;;;23.00;52.50;;;;;;5116332;28;20343;-54
2021/12/10 08:57:48;;;;;;;;;;;23.00;52.50;;;;;;5115904;28;19924;-56
2021/12/10 09:00:16;;;;;;;;;;;23.00;52.40;;;;;;5115687;28;19977;-56
2021/12/10 09:02:43;;;;;;;;;;;23.00;52.40;;;;;;5115826;28;19924;-56
2021/12/10 09:05:12;;;;;;;;;;;23.00;52.40;;;;;;5115117;27;20348;-56
2021/12/10 09:07:42;;;;;;;;;;;23.00;52.40;;;;;;5098228;28;19931;-55
2021/12/10 09:10:11;;;;;;;;;;;23.00;52.40;;;;;;5115764;28;20396;-56
2021/12/10 09:12:38;;;;;;;;;;;23.00;52.30;;;;;;5115647;28;19932;-55
2021/12/10 09:15:08;;;;;;;;;;;23.00;52.30;;;;;;5115847;28;20328;-48
2021/12/10 09:17:37;;;;;;;;;;;23.10;52.30;;;;;;5115372;28;19923;-48
2021/12/10 09:20:07;;;;;;;;;;;23.10;52.30;;;;;;5114520;28;19923;-48
2021/12/10 09:22:34;;;;;;;;;;;23.10;52.30;;;;;;5115402;28;19923;-52
2021/12/10 09:25:04;;;;;;;;;;;23.10;52.20;;;;;;5115370;28;19924;-46
2021/12/10 09:27:31;;;;;;;;;;;23.10;52.20;;;;;;5115345;28;19927;-51
2021/12/10 09:29:58;;;;;;;;;;;23.10;52.10;;;;;;5115576;28;19962;-46
2021/12/10 09:32:26;;;;;;;;;;;23.10;52.10;;;;;;5115380;28;19923;-48
2021/12/10 09:34:56;;;;;;;;;;;23.20;52.10;;;;;;5113738;28;19974;-44
2021/12/10 09:37:24;;;;;;;;;;;23.20;52.10;;;;;;5115365;28;19924;-51
2021/12/10 09:39:52;;;;;;;;;;;23.20;52.00;;;;;;5115114;28;19969;-50
2021/12/10 09:42:22;;;;;;;;;;;23.20;52.00;;;;;;5115060;28;19973;-49
2021/12/10 09:44:51;;;;;;;;;;;23.20;52.00;;;;;;5115007;28;19976;-49
2021/12/10 09:47:18;;;;;;;;;;;23.30;52.00;;;;;;5114981;28;20432;-51
2021/12/10 09:49:47;;;;;;;;;;;23.30;52.00;;;;;;5113675;28;19984;-54
2021/12/10 09:52:16;;;;;;;;;;;23.30;51.90;;;;;;5114931;28;20340;-49
2021/12/10 09:54:44;;;;;;;;;;;23.30;51.90;;;;;;5115085;28;20276;-55
2021/12/10 09:57:18;;;;;;;;;;;23.30;51.90;;;;;;5114682;28;19927;-52
2021/12/10 09:59:46;;;;;;;;;;;23.30;51.80;;;;;;5115099;28;19923;-52
2021/12/10 10:02:14;;;;;;;;;;;23.30;51.80;;;;;;5114653;28;19924;-51
2021/12/10 10:04:48;;;;;;;;;;;23.40;51.90;;;;;;5113619;28;19928;-55
2021/12/10 10:07:20;;;;;;;;;;;23.40;51.90;;;;;;5114614;28;19924;-49
2021/12/10 10:09:49;;;;;;;;;;;23.40;51.80;;;;;;5114595;28;19924;-47
2021/12/10 10:12:19;;;;;;;;;;;23.40;51.80;;;;;;5114554;28;19924;-55
2021/12/10 10:14:47;;;;;;;;;;;23.40;51.80;;;;;;5114390;28;19923;-49
2021/12/10 10:17:15;;;;;;;;;;;23.40;51.80;;;;;;5114540;28;19928;-52
2021/12/10 10:19:43;;;;;;;;;;;23.40;51.80;;;;;;5113772;27;20294;-45
2021/12/10 10:22:13;;;;;;;;;;;23.50;51.80;;;;;;5114605;28;19924;-47
2021/12/10 10:24:41;;;;;;;;;;;23.40;51.70;;;;;;5114352;28;20294;-53
2021/12/10 10:27:11;;;;;;;;;;;23.50;51.80;;;;;;5114277;28;19924;-51
2021/12/10 10:29:42;;;;;;;;;;;23.50;51.80;;;;;;5114582;28;19924;-47
2021/12/10 10:32:12;;;;;;;;;;;23.50;51.80;;;;;;5114573;28;19924;-47
2021/12/10 10:34:45;;;;;;;;;;;23.50;51.80;;;;;;5112992;28;19934;-48
2021/12/10 10:37:12;;;;;;;;;;;23.50;51.70;;;;;;5114433;28;19924;-48
2021/12/10 10:39:41;;;;;;;;;;;23.50;51.70;;;;;;5096256;28;20383;-48
2021/12/10 10:42:11;;;;;;;;;;;23.50;51.70;;;;;;5113867;28;19923;-51
2021/12/10 10:44:58;;;;;;;;;;;23.50;51.70;;;;;;5114742;28;19928;-53
2021/12/10 10:47:26;;;;;;;;;;;23.50;51.70;;;;;;5114472;28;20298;-49
2021/12/10 10:49:55;;;;;;;;;;;23.50;51.70;;;;;;5095196;28;19923;-51
2021/12/10 10:52:23;;;;;;;;;;;23.50;51.60;;;;;;5113730;28;19924;-50
2021/12/10 10:54:51;;;;;;;;;;;23.60;51.70;;;;;;5113948;28;20007;-52
2021/12/10 10:57:24;;;;;;;;;;;23.60;51.70;;;;;;5096281;28;19955;-53
2021/12/10 10:59:56;;;;;;;;;;;23.60;51.70;;;;;;5114256;28;19928;-50
2021/12/10 11:02:26;;;;;;;;;;;23.60;51.70;;;;;;5114286;28;19923;-44
2021/12/10 11:04:54;;;;;;;;;;;23.60;51.70;;;;;;5112702;28;19934;-50
2021/12/10 11:07:25;;;;;;;;;;;23.60;51.70;;;;;;5113797;28;19928;-51
2021/12/10 11:09:54;;;;;;;;;;;23.60;51.70;;;;;;5113891;28;20271;-52
2021/12/10 11:12:26;;;;;;;;;;;23.60;51.70;;;;;;5113468;28;19935;-56
2021/12/10 11:14:54;;;;;;;;;;;23.60;51.70;;;;;;5113703;28;19923;-55
2021/12/10 11:17:32;;;;;;;;;;;23.60;51.60;;;;;;5114127;28;19950;-51
2021/12/10 11:19:59;;;;;;;;;;;23.60;51.60;;;;;;5112973;28;20451;-52
2021/12/10 11:22:27;;;;;;;;;;;23.70;51.70;;;;;;5113470;28;19931;-51
2021/12/10 11:25:00;;;;;;;;;;;23.60;51.60;;;;;;5113758;28;19924;-51
2021/12/10 11:27:41;;;;;;;;;;;23.70;51.70;;;;;;5114085;28;19996;-49
2021/12/10 11:30:12;;;;;;;;;;;23.70;51.70;;;;;;5114099;28;20010;-50
2021/12/10 11:32:41;;;;;;;;;;;23.70;51.70;;;;;;5114319;28;19930;-47
2021/12/10 11:35:16;;;;;;;;;;;23.70;51.70;;;;;;5112812;28;20412;-49
2021/12/10 11:37:55;;;;;;;;;;;23.70;51.70;;;;;;5113981;28;20324;-50
2021/12/10 11:40:27;;;;;;;;;;;23.70;51.70;;;;;;5113930;28;19924;-55
2021/12/10 11:43:00;;;;;;;;;;;23.70;51.70;;;;;;5114203;28;19969;-48
2021/12/10 11:45:41;;;;;;;;;;;23.70;51.70;;;;;;5113930;28;19930;-45
2021/12/10 11:48:13;;;;;;;;;;;23.70;51.80;;;;;;5113886;28;19973;-48
2021/12/10 11:50:46;;;;;;;;;;;23.70;51.80;;;;;;5113081;28;19953;-45
2021/12/10 11:53:16;;;;;;;;;;;23.70;51.80;;;;;;5113558;28;19959;-51
2021/12/10 11:56:13;;;;;;;;;;;23.70;51.80;;;;;;5098083;28;20061;-54
2021/12/10 11:58:40;;;;;;;;;;;23.70;51.80;;;;;;5095951;28;19931;-46
2021/12/10 12:01:16;;;;;;;;;;;23.70;51.80;;;;;;5117353;28;19931;-50
2021/12/10 12:03:43;;;;;;;;;;;23.70;52.40;;;;;;5117061;28;20438;-51
2021/12/10 12:06:16;;;;;;;;;;;23.70;51.80;;;;;;5116295;27;19953;-45
2021/12/10 12:08:43;;;;;;;;;;;23.70;51.80;;;;;;5116889;28;19928;-48
2021/12/10 12:11:10;;;;;;;;;;;23.70;51.80;;;;;;5117122;28;19924;-49
2021/12/10 12:13:57;;;;;;;;;;;23.70;51.80;;;;;;5116756;28;19930;-51
2021/12/10 12:16:27;;;;;;;;;;;23.70;51.80;;;;;;5116844;28;20367;-53
2021/12/10 12:18:59;;;;;;;;;;;23.70;51.80;;;;;;5116847;28;20003;-50
2021/12/10 12:27:05;;;;;;;;;;;23.80;51.90;;;;;;5116665;28;19924;-56
2021/12/10 12:29:55;;;;;;;;;;;23.70;51.90;;;;;;5116519;28;20004;-51
2021/12/10 12:32:26;;;;;;;;;;;23.80;52.00;;;;;;5098665;28;19924;-52
2021/12/10 12:34:53;;;;;;;;;;;23.80;52.00;;;;;;5116260;28;19924;-54
2021/12/10 12:37:23;;;;;;;;;;;23.80;52.00;;;;;;5115164;28;19924;-56
2021/12/10 12:40:10;;;;;;;;;;;23.80;52.00;;;;;;5116261;28;19999;-54
2021/12/10 12:42:47;;;;;;;;;;;23.80;52.00;;;;;;5116264;28;20466;-54
2021/12/10 12:45:19;;;;;;;;;;;23.80;52.00;;;;;;5116205;28;19928;-55
2021/12/10 12:48:10;;;;;;;;;;;23.80;52.00;;;;;;5116185;28;19924;-54
2021/12/10 12:50:46;;;;;;;;;;;23.80;52.00;;;;;;5115358;28;19924;-54
2021/12/10 12:53:29;;;;;;;;;;;23.80;52.00;;;;;;5115544;28;19924;-52
2021/12/10 12:56:00;;;;;;;;;;;23.80;52.10;;;;;;5116343;28;19923;-52
2021/12/10 12:58:54;;;;;;;;;;;23.80;52.10;;;;;;5115965;28;19984;-52
2021/12/10 13:01:30;;;;;;;;;;;23.80;52.10;;;;;;5116150;28;19974;-51
2021/12/10 13:04:04;;;;;;;;;;;23.80;52.10;;;;;;5123716;27;19923;-52
2021/12/10 13:06:55;;;;;;;;;;;23.80;52.00;;;;;;5122346;27;20024;-55
2021/12/10 13:09:41;;;;;;;;;;;23.80;52.50;;;;;;5122050;27;19923;-52
2021/12/10 13:12:18;;;;;;;;;;;23.80;53.30;;;;;;5115198;28;19924;-53
2021/12/10 13:14:54;;;;;;;;;;;23.80;52.50;;;;;;5115277;28;20558;-49
2021/12/10 13:17:23;;;;;;;;;;;23.80;52.30;;;;;;5117213;27;19927;-54
2021/12/10 13:19:52;;;;;;;;;;;23.80;52.20;;;;;;5136121;27;19930;-54
2021/12/10 13:22:22;;;;;;;;;;;23.80;52.20;;;;;;5123584;27;20895;-54
2021/12/10 13:24:52;;;;;;;;;;;23.80;52.10;;;;;;5114822;28;19973;-51
2021/12/10 13:27:20;;;;;;;;;;;23.80;52.00;;;;;;5115680;28;20286;-53
2021/12/10 13:30:09;;;;;;;;;;;23.90;52.10;;;;;;5115651;28;20377;-48
2021/12/10 13:32:36;;;;;;;;;;;23.90;52.00;;;;;;5115572;28;19924;-48
2021/12/10 13:35:04;;;;;;;;;;;23.90;52.00;;;;;;5115162;28;19924;-51
2021/12/10 13:37:31;;;;;;;;;;;23.90;52.00;;;;;;5114351;28;19928;-46
2021/12/10 13:40:00;;;;;;;;;;;23.90;51.90;;;;;;5115158;28;19931;-50
2021/12/10 13:42:27;;;;;;;;;;;23.90;51.90;;;;;;5115421;28;19923;-51
2021/12/10 13:44:55;;;;;;;;;;;23.90;51.90;;;;;;5115058;28;19924;-54
2021/12/10 13:47:22;;;;;;;;;;;23.90;51.90;;;;;;5115003;28;19934;-51
2021/12/10 13:49:53;;;;;;;;;;;23.90;51.90;;;;;;5116395;28;20244;-46
2021/12/10 13:52:34;;;;;;;;;;;23.90;51.80;;;;;;5113491;28;19924;-50
2021/12/10 13:55:03;;;;;;;;;;;23.90;51.80;;;;;;5114784;28;19931;-53
2021/12/10 13:57:30;;;;;;;;;;;23.90;51.80;;;;;;5114812;28;20375;-49
2021/12/10 13:59:59;;;;;;;;;;;23.80;51.80;;;;;;5115042;28;19924;-55
2021/12/10 14:02:33;;;;;;;;;;;23.90;51.80;;;;;;5114693;28;19924;-50
2021/12/10 14:05:21;;;;;;;;;;;23.80;51.80;;;;;;5114702;28;19963;-50
2021/12/10 14:07:50;;;;;;;;;;;23.80;51.80;;;;;;5096778;28;19924;-49
2021/12/10 14:10:29;;;;;;;;;;;23.80;51.80;;;;;;5114573;28;19931;-46
2021/12/10 14:12:57;;;;;;;;;;;23.80;51.80;;;;;;5097519;28;20332;-48
2021/12/10 14:15:28;;;;;;;;;;;23.80;51.80;;;;;;5114423;28;19923;-54
2021/12/10 14:18:21;;;;;;;;;;;23.80;51.80;;;;;;5113629;28;19923;-52
2021/12/10 14:21:10;;;;;;;;;;;23.80;51.70;;;;;;5115021;28;20261;-53
2021/12/10 14:24:00;;;;;;;;;;;23.80;51.70;;;;;;5113122;28;19949;-55
2021/12/10 14:27:02;;;;;;;;;;;23.80;51.70;;;;;;5115489;28;20333;-57
2021/12/10 14:30:07;;;;;;;;;;;23.80;51.70;;;;;;5115102;28;20391;-53
2021/12/10 14:32:38;;;;;;;;;;;23.80;51.80;;;;;;5114377;28;19924;-55
2021/12/10 14:35:14;;;;;;;;;;;23.70;51.70;;;;;;5115291;28;19931;-53
2021/12/10 14:38:00;;;;;;;;;;;23.70;51.70;;;;;;5113566;28;19981;-48
2021/12/10 14:40:50;;;;;;;;;;;23.70;51.80;;;;;;5115374;28;20264;-47
2021/12/10 14:43:20;;;;;;;;;;;23.70;51.80;;;;;;5114488;28;19923;-47
2021/12/10 14:46:00;;;;;;;;;;;23.70;51.80;;;;;;5114437;28;19924;-52
2021/12/10 14:48:28;;;;;;;;;;;23.70;51.80;;;;;;5114450;28;19924;-51